Time;durP1;ratioP1;P1;durP2;ratioP2;P2;SDS_P1;SDS_P2;PMS_P1;PMS_P2;Temp;Humidity;BMP_temperature;BMP_pressure;BME280_temperature;BME280_humidity;BME280_pressure;Samples;Min_cycle;Max_cycle;Signal;HPM_P1;HPM_P2
2022/11/02 00:02:24;;;;;;;1999.90;999.90;;;;;;;;;;5032485;28;20208;-73
2022/11/02 00:05:11;;;;;;;1999.90;999.90;;;;;;;;;;5032294;28;20211;-74
2022/11/02 00:07:55;;;;;;;1999.90;999.90;;;;;;;;;;5032313;28;20228;-74
2022/11/02 00:10:42;;;;;;;1999.90;999.90;;;;;;;;;;5032313;28;20228;-73
2022/11/02 00:13:27;;;;;;;1999.90;999.90;;;;;;;;;;5032331;28;20562;-73
2022/11/02 00:16:13;;;;;;;1999.90;999.90;;;;;;;;;;5031945;28;20223;-73
2022/11/02 00:19:00;;;;;;;1999.90;999.90;;;;;;;;;;5032146;28;20208;-74
2022/11/02 00:21:45;;;;;;;1999.90;999.90;;;;;;;;;;5032323;28;20205;-73
2022/11/02 00:24:31;;;;;;;1999.90;999.90;;;;;;;;;;5031863;28;20602;-72
2022/11/02 00:27:17;;;;;;;1999.90;999.90;;;;;;;;;;5032277;28;20212;-73
2022/11/02 00:30:03;;;;;;;1999.90;999.90;;;;;;;;;;5031687;28;20407;-74
2022/11/02 00:32:48;;;;;;;1999.90;999.90;;;;;;;;;;5032516;28;20193;-74
2022/11/02 00:35:33;;;;;;;1999.90;999.90;;;;;;;;;;5032294;28;20194;-73
2022/11/02 00:38:18;;;;;;;1999.90;999.90;;;;;;;;;;5032130;28;20276;-73
2022/11/02 00:41:03;;;;;;;1999.90;999.90;;;;;;;;;;5031937;28;20237;-74
2022/11/02 00:43:49;;;;;;;1999.90;999.90;;;;;;;;;;5032384;28;20208;-75
2022/11/02 00:46:34;;;;;;;1999.90;999.90;;;;;;;;;;5016261;28;20210;-75
2022/11/02 00:49:19;;;;;;;1999.90;999.90;;;;;;;;;;5014957;28;20335;-75
2022/11/02 00:52:06;;;;;;;1999.90;999.90;;;;;;;;;;5022035;28;20482;-74
2022/11/02 00:54:51;;;;;;;1999.90;999.90;;;;;;;;;;5030844;28;20589;-74
2022/11/02 00:57:36;;;;;;;1999.90;999.90;;;;;;;;;;5031738;28;20220;-74
2022/11/02 01:00:23;;;;;;;1999.90;999.90;;;;;;;;;;5030704;28;20245;-75
2022/11/02 01:03:08;;;;;;;1999.90;999.90;;;;;;;;;;5026720;28;20213;-74
2022/11/02 01:05:52;;;;;;;1999.90;999.90;;;;;;;;;;5032440;28;20236;-73
2022/11/02 01:08:37;;;;;;;1999.90;999.90;;;;;;;;;;5017162;28;20206;-74
2022/11/02 01:11:23;;;;;;;1999.90;999.90;;;;;;;;;;5028017;28;20586;-74
2022/11/02 01:14:09;;;;;;;1999.90;999.90;;;;;;;;;;5035357;28;20310;-74
2022/11/02 01:16:56;;;;;;;1999.90;999.90;;;;;;;;;;5035471;28;20220;-74
2022/11/02 01:19:41;;;;;;;1999.90;999.90;;;;;;;;;;5029626;28;20746;-74
2022/11/02 01:22:26;;;;;;;1999.90;999.90;;;;;;;;;;5023409;28;20276;-74
2022/11/02 01:25:11;;;;;;;1999.90;999.90;;;;;;;;;;5032844;28;20318;-73
2022/11/02 01:27:55;;;;;;;1999.90;999.90;;;;;;;;;;5038771;28;20200;-70
2022/11/02 01:30:41;;;;;;;1999.90;999.90;;;;;;;;;;5033047;28;20290;-75
2022/11/02 01:33:27;;;;;;;1999.90;999.90;;;;;;;;;;5037161;28;20617;-73
2022/11/02 01:36:15;;;;;;;1999.90;999.90;;;;;;;;;;5033688;28;20208;-73
2022/11/02 01:39:00;;;;;;;1999.90;999.90;;;;;;;;;;5026924;28;20795;-76
2022/11/02 01:41:45;;;;;;;1999.90;999.90;;;;;;;;;;5032563;28;20212;-73
2022/11/02 01:44:31;;;;;;;1999.90;999.90;;;;;;;;;;5033144;28;20570;-73
2022/11/02 01:47:18;;;;;;;1999.90;999.90;;;;;;;;;;5042649;28;20286;-73
2022/11/02 01:50:07;;;;;;;1999.90;999.90;;;;;;;;;;5042868;28;20230;-73
2022/11/02 01:52:52;;;;;;;1999.90;999.90;;;;;;;;;;5032184;28;20211;-73
2022/11/02 01:55:37;;;;;;;1999.90;999.90;;;;;;;;;;5033915;28;20213;-73
2022/11/02 01:58:23;;;;;;;1999.90;999.90;;;;;;;;;;5030002;28;20602;-74
2022/11/02 02:01:08;;;;;;;1999.90;999.90;;;;;;;;;;5032812;28;20227;-71
2022/11/02 02:03:53;;;;;;;1999.90;999.90;;;;;;;;;;5033237;28;20212;-74
2022/11/02 02:06:40;;;;;;;1999.90;999.90;;;;;;;;;;5033779;28;20690;-74
2022/11/02 02:09:26;;;;;;;1999.90;999.90;;;;;;;;;;5034541;28;20345;-74
2022/11/02 02:12:12;;;;;;;1999.90;999.90;;;;;;;;;;5033895;28;20308;-73
2022/11/02 02:14:58;;;;;;;1999.90;999.90;;;;;;;;;;5042513;28;20600;-74
2022/11/02 02:17:48;;;;;;;1999.90;999.90;;;;;;;;;;5039611;28;20219;-73
2022/11/02 02:20:39;;;;;;;1999.90;999.90;;;;;;;;;;5052958;28;20305;-72
2022/11/02 02:23:42;;;;;;;1999.90;999.90;;;;;;;;;;5053995;28;20320;-73
2022/11/02 02:26:48;;;;;;;1999.90;999.90;;;;;;;;;;5053534;28;20745;-72
2022/11/02 02:29:37;;;;;;;1999.90;999.90;;;;;;;;;;5035758;28;20270;-73
2022/11/02 02:32:27;;;;;;;1999.90;999.90;;;;;;;;;;5036691;28;20208;-73
2022/11/02 02:35:21;;;;;;;1999.90;999.90;;;;;;;;;;5036902;28;20227;-73
2022/11/02 02:38:09;;;;;;;1999.90;999.90;;;;;;;;;;5037057;28;20248;-72
2022/11/02 02:40:58;;;;;;;1999.90;999.90;;;;;;;;;;5033955;28;20579;-72
2022/11/02 02:43:46;;;;;;;1999.90;999.90;;;;;;;;;;5033730;28;20190;-73
2022/11/02 02:46:33;;;;;;;1999.90;999.90;;;;;;;;;;5033690;28;20585;-74
2022/11/02 02:49:21;;;;;;;1999.90;999.90;;;;;;;;;;5033831;28;20222;-72
2022/11/02 02:52:07;;;;;;;1999.90;999.90;;;;;;;;;;5033872;28;20291;-73
2022/11/02 02:54:55;;;;;;;1999.90;999.90;;;;;;;;;;5032962;28;20267;-72
2022/11/02 02:57:41;;;;;;;1999.90;999.90;;;;;;;;;;5033095;28;20712;-72
2022/11/02 03:00:26;;;;;;;1999.90;999.90;;;;;;;;;;5033296;28;20222;-72
2022/11/02 03:03:16;;;;;;;1999.90;999.90;;;;;;;;;;5032556;28;20919;-72
2022/11/02 03:06:04;;;;;;;1999.90;999.90;;;;;;;;;;5032626;28;20212;-73
2022/11/02 03:08:53;;;;;;;1999.90;999.90;;;;;;;;;;5033292;28;20191;-74
2022/11/02 03:11:45;;;;;;;1999.90;999.90;;;;;;;;;;5033188;28;20198;-72
2022/11/02 03:14:33;;;;;;;1999.90;999.90;;;;;;;;;;5032910;28;20676;-74
2022/11/02 03:17:19;;;;;;;1999.90;999.90;;;;;;;;;;5033493;28;20292;-74
2022/11/02 03:20:11;;;;;;;1999.90;999.90;;;;;;;;;;5033288;28;20236;-74
2022/11/02 03:23:00;;;;;;;1999.90;999.90;;;;;;;;;;5033153;28;20814;-75
2022/11/02 03:25:47;;;;;;;1999.90;999.90;;;;;;;;;;5033131;28;20199;-74
2022/11/02 03:28:41;;;;;;;1999.90;999.90;;;;;;;;;;5031180;28;20286;-75
2022/11/02 03:31:32;;;;;;;1999.90;999.90;;;;;;;;;;5017352;28;20199;-75
2022/11/02 03:34:24;;;;;;;1999.90;999.90;;;;;;;;;;5032868;28;20190;-74
2022/11/02 03:37:13;;;;;;;1999.90;999.90;;;;;;;;;;5025789;28;20215;-75
2022/11/02 03:40:01;;;;;;;1999.90;999.90;;;;;;;;;;5030091;28;20228;-74
2022/11/02 03:42:48;;;;;;;1999.90;999.90;;;;;;;;;;5026207;28;20219;-75
2022/11/02 03:45:35;;;;;;;1999.90;999.90;;;;;;;;;;5032638;28;20214;-74
2022/11/02 03:48:21;;;;;;;1999.90;999.90;;;;;;;;;;5024887;28;20192;-74
2022/11/02 03:51:08;;;;;;;1999.90;999.90;;;;;;;;;;5028402;28;20234;-74
2022/11/02 03:53:57;;;;;;;1999.90;999.90;;;;;;;;;;5029186;28;20203;-74
2022/11/02 03:56:46;;;;;;;1999.90;999.90;;;;;;;;;;5031084;28;20233;-72
2022/11/02 03:59:31;;;;;;;1999.90;999.90;;;;;;;;;;5026011;28;20272;-75
2022/11/02 04:02:18;;;;;;;1999.90;999.90;;;;;;;;;;5032229;28;20338;-74
2022/11/02 04:05:03;;;;;;;1999.90;999.90;;;;;;;;;;5014496;28;20210;-74
2022/11/02 04:20:05;;;;;;;1999.90;999.90;;;;;;;;;;5028844;28;20854;-74
2022/11/02 04:25:54;;;;;;;1999.90;999.90;;;;;;;;;;5030892;28;20210;-74
2022/11/02 04:28:39;;;;;;;1999.90;999.90;;;;;;;;;;5026124;28;20211;-72
2022/11/02 04:31:24;;;;;;;1999.90;999.90;;;;;;;;;;5029291;28;20207;-72
2022/11/02 04:34:09;;;;;;;1999.90;999.90;;;;;;;;;;5034851;28;20281;-73
2022/11/02 04:36:54;;;;;;;1999.90;999.90;;;;;;;;;;5044503;28;20575;-73
2022/11/02 04:39:38;;;;;;;1999.90;999.90;;;;;;;;;;5038328;28;20410;-71
2022/11/02 04:42:24;;;;;;;1999.90;999.90;;;;;;;;;;5034009;28;20207;-70
2022/11/02 04:45:09;;;;;;;1999.90;999.90;;;;;;;;;;5031502;28;20206;-71
2022/11/02 04:47:59;;;;;;;1999.90;999.90;;;;;;;;;;5030792;28;20743;-71
2022/11/02 04:50:44;;;;;;;1999.90;999.90;;;;;;;;;;5034163;28;20586;-71
2022/11/02 04:53:29;;;;;;;1999.90;999.90;;;;;;;;;;5033964;28;20198;-71
2022/11/02 04:56:14;;;;;;;1999.90;999.90;;;;;;;;;;5033971;28;20310;-72
2022/11/02 04:59:00;;;;;;;1999.90;999.90;;;;;;;;;;5033811;28;20222;-70
2022/11/02 05:01:45;;;;;;;1999.90;999.90;;;;;;;;;;5034106;28;20253;-71
2022/11/02 05:04:30;;;;;;;1999.90;999.90;;;;;;;;;;5033862;28;20212;-72
2022/11/02 05:07:15;;;;;;;1999.90;999.90;;;;;;;;;;5034129;28;20284;-71
2022/11/02 05:10:00;;;;;;;1999.90;999.90;;;;;;;;;;5033973;28;20733;-70
2022/11/02 05:12:45;;;;;;;1999.90;999.90;;;;;;;;;;5033984;28;20222;-71
2022/11/02 05:15:31;;;;;;;1999.90;999.90;;;;;;;;;;5033700;28;20213;-71
2022/11/02 05:18:16;;;;;;;1999.90;999.90;;;;;;;;;;5033644;28;20225;-71
2022/11/02 05:21:01;;;;;;;1999.90;999.90;;;;;;;;;;4997375;28;1066453;-71
2022/11/02 05:23:46;;;;;;;1999.90;999.90;;;;;;;;;;5034981;28;20592;-71
2022/11/02 05:26:31;;;;;;;1999.90;999.90;;;;;;;;;;5034797;28;20793;-72
2022/11/02 05:29:16;;;;;;;1999.90;999.90;;;;;;;;;;5034846;28;20266;-72
2022/11/02 05:32:02;;;;;;;1999.90;999.90;;;;;;;;;;5034497;28;20281;-72
2022/11/02 05:34:47;;;;;;;1999.90;999.90;;;;;;;;;;5034507;28;20264;-72
2022/11/02 05:37:31;;;;;;;1999.90;999.90;;;;;;;;;;5034729;28;20374;-72
2022/11/02 05:40:16;;;;;;;1999.90;999.90;;;;;;;;;;5034271;28;20225;-72
2022/11/02 05:43:02;;;;;;;1999.90;999.90;;;;;;;;;;5034485;28;20199;-72
2022/11/02 05:45:51;;;;;;;1999.90;999.90;;;;;;;;;;5034110;28;20205;-72
2022/11/02 05:48:38;;;;;;;1999.90;999.90;;;;;;;;;;5034505;28;20724;-72
2022/11/02 05:51:23;;;;;;;1999.90;999.90;;;;;;;;;;5033422;28;20930;-72
2022/11/02 05:54:08;;;;;;;1999.90;999.90;;;;;;;;;;5034152;28;20743;-71
2022/11/02 05:56:52;;;;;;;1999.90;999.90;;;;;;;;;;5033287;28;20427;-72
2022/11/02 05:59:37;;;;;;;1999.90;999.90;;;;;;;;;;5033962;28;20289;-72
2022/11/02 06:02:22;;;;;;;1999.90;999.90;;;;;;;;;;5034266;28;20258;-73
2022/11/02 06:05:09;;;;;;;1999.90;999.90;;;;;;;;;;5033965;28;20700;-72
2022/11/02 06:07:57;;;;;;;1999.90;999.90;;;;;;;;;;5034240;28;20778;-71
2022/11/02 06:10:42;;;;;;;1999.90;999.90;;;;;;;;;;5034086;28;20729;-73
2022/11/02 06:13:27;;;;;;;1999.90;999.90;;;;;;;;;;5034120;28;20303;-72
2022/11/02 06:16:14;;;;;;;1999.90;999.90;;;;;;;;;;5033191;28;20203;-72
2022/11/02 06:18:59;;;;;;;1999.90;999.90;;;;;;;;;;5030426;28;20727;-72
2022/11/02 06:21:45;;;;;;;1999.90;999.90;;;;;;;;;;5034300;28;20209;-72
2022/11/02 06:24:30;;;;;;;1999.90;999.90;;;;;;;;;;5033735;28;20212;-72
2022/11/02 06:27:14;;;;;;;1999.90;999.90;;;;;;;;;;5033396;28;20290;-72
2022/11/02 06:29:59;;;;;;;1999.90;999.90;;;;;;;;;;5033463;28;20219;-72
2022/11/02 06:32:46;;;;;;;1999.90;999.90;;;;;;;;;;5033721;28;20211;-72
2022/11/02 06:35:30;;;;;;;1999.90;999.90;;;;;;;;;;5033201;28;20207;-72
2022/11/02 06:38:17;;;;;;;1999.90;999.90;;;;;;;;;;5033476;28;20217;-72
2022/11/02 06:41:04;;;;;;;1999.90;999.90;;;;;;;;;;5033596;28;20611;-71
2022/11/02 06:43:49;;;;;;;1999.90;999.90;;;;;;;;;;5033612;28;20210;-71
2022/11/02 06:46:34;;;;;;;1999.90;999.90;;;;;;;;;;5033257;28;20708;-71
2022/11/02 06:49:19;;;;;;;1999.90;999.90;;;;;;;;;;5033198;28;20223;-71
2022/11/02 06:52:04;;;;;;;1999.90;999.90;;;;;;;;;;5032305;28;20300;-71
2022/11/02 06:54:50;;;;;;;1999.90;999.90;;;;;;;;;;5032926;28;20203;-72
2022/11/02 06:57:35;;;;;;;1999.90;999.90;;;;;;;;;;5033147;28;20213;-72
2022/11/02 07:00:20;;;;;;;1999.90;999.90;;;;;;;;;;5032829;28;20225;-71
2022/11/02 07:03:06;;;;;;;1999.90;999.90;;;;;;;;;;5032961;28;20457;-71
2022/11/02 07:05:52;;;;;;;1999.90;999.90;;;;;;;;;;5032872;28;20221;-72
2022/11/02 07:08:37;;;;;;;1999.90;999.90;;;;;;;;;;5033325;28;20685;-71
2022/11/02 07:11:23;;;;;;;1999.90;999.90;;;;;;;;;;5032783;28;20289;-71
2022/11/02 07:14:08;;;;;;;1999.90;999.90;;;;;;;;;;5032580;28;20211;-71
2022/11/02 07:16:53;;;;;;;1999.90;999.90;;;;;;;;;;5032682;28;20306;-72
2022/11/02 07:19:38;;;;;;;1999.90;999.90;;;;;;;;;;5032694;28;20229;-71
2022/11/02 07:22:22;;;;;;;1999.90;999.90;;;;;;;;;;5032733;28;20195;-72
2022/11/02 07:25:07;;;;;;;1999.90;999.90;;;;;;;;;;5032566;28;20198;-72
2022/11/02 07:27:54;;;;;;;1999.90;999.90;;;;;;;;;;5032574;28;20204;-71
2022/11/02 07:30:40;;;;;;;1999.90;999.90;;;;;;;;;;5032522;28;20684;-72
2022/11/02 07:33:25;;;;;;;1999.90;999.90;;;;;;;;;;5032745;28;20337;-71
2022/11/02 07:36:10;;;;;;;1999.90;999.90;;;;;;;;;;5032357;28;20205;-72
2022/11/02 07:38:54;;;;;;;1999.90;999.90;;;;;;;;;;5032255;28;20353;-72
2022/11/02 07:41:39;;;;;;;1999.90;999.90;;;;;;;;;;5032480;28;20688;-72
2022/11/02 07:44:25;;;;;;;1999.90;999.90;;;;;;;;;;5032041;28;20289;-72
2022/11/02 07:47:10;;;;;;;1999.90;999.90;;;;;;;;;;5031872;28;20211;-73
2022/11/02 07:49:57;;;;;;;1999.90;999.90;;;;;;;;;;5020806;28;20729;-72
2022/11/02 07:52:43;;;;;;;1999.90;999.90;;;;;;;;;;5031636;28;20292;-72
2022/11/02 07:55:29;;;;;;;1999.90;999.90;;;;;;;;;;5031453;28;20215;-71
2022/11/02 07:58:14;;;;;;;1999.90;999.90;;;;;;;;;;5029884;28;20235;-72
2022/11/02 08:01:01;;;;;;;1999.90;999.90;;;;;;;;;;5040229;28;20310;-71
2022/11/02 08:03:46;;;;;;;1999.90;999.90;;;;;;;;;;5047836;28;20219;-72
2022/11/02 08:06:32;;;;;;;1999.90;999.90;;;;;;;;;;5030918;28;20204;-72
2022/11/02 08:09:18;;;;;;;1999.90;999.90;;;;;;;;;;5028320;28;20223;-70
2022/11/02 08:12:02;;;;;;;1999.90;999.90;;;;;;;;;;5032555;28;20792;-71
2022/11/02 08:14:47;;;;;;;1999.90;999.90;;;;;;;;;;5028663;28;20215;-70
2022/11/02 08:17:34;;;;;;;1999.90;999.90;;;;;;;;;;5025976;28;20232;-73
2022/11/02 08:20:19;;;;;;;1999.90;999.90;;;;;;;;;;5024619;28;20240;-72
2022/11/02 08:23:04;;;;;;;1999.90;999.90;;;;;;;;;;5028184;28;20216;-72
2022/11/02 08:25:50;;;;;;;1999.90;999.90;;;;;;;;;;5028706;28;20711;-70
2022/11/02 08:28:38;;;;;;;1999.90;999.90;;;;;;;;;;5027963;28;20430;-72
2022/11/02 08:31:23;;;;;;;1999.90;999.90;;;;;;;;;;5032061;28;20691;-72
2022/11/02 08:34:11;;;;;;;1999.90;999.90;;;;;;;;;;5030157;28;20216;-71
2022/11/02 08:36:57;;;;;;;1999.90;999.90;;;;;;;;;;5028282;28;20224;-73
2022/11/02 08:39:42;;;;;;;1999.90;999.90;;;;;;;;;;5026269;28;20284;-71
2022/11/02 08:42:27;;;;;;;1999.90;999.90;;;;;;;;;;5027416;28;20216;-71
2022/11/02 08:45:12;;;;;;;1999.90;999.90;;;;;;;;;;5026899;28;20216;-73
2022/11/02 08:47:56;;;;;;;1999.90;999.90;;;;;;;;;;5027227;28;20212;-69
2022/11/02 08:50:43;;;;;;;1999.90;999.90;;;;;;;;;;5027353;28;20343;-71
2022/11/02 08:53:28;;;;;;;1999.90;999.90;;;;;;;;;;5027919;28;20801;-73
2022/11/02 08:56:12;;;;;;;1999.90;999.90;;;;;;;;;;5028986;28;20655;-70
2022/11/02 08:58:57;;;;;;;1999.90;999.90;;;;;;;;;;5023217;28;20318;-72
2022/11/02 09:01:42;;;;;;;1999.90;999.90;;;;;;;;;;5027606;28;20263;-71
2022/11/02 09:04:26;;;;;;;1999.90;999.90;;;;;;;;;;5027306;28;20632;-72
2022/11/02 09:07:13;;;;;;;1999.90;999.90;;;;;;;;;;5024708;28;20766;-72
2022/11/02 09:09:58;;;;;;;1999.90;999.90;;;;;;;;;;5025774;28;20600;-71
2022/11/02 09:12:42;;;;;;;1999.90;999.90;;;;;;;;;;5027809;28;20213;-71
2022/11/02 09:15:28;;;;;;;1999.90;999.90;;;;;;;;;;5028123;28;20219;-72
2022/11/02 09:18:13;;;;;;;1999.90;999.90;;;;;;;;;;5026659;28;20282;-72
2022/11/02 09:21:01;;;;;;;1999.90;999.90;;;;;;;;;;5029029;28;20240;-73
2022/11/02 09:23:48;;;;;;;1999.90;999.90;;;;;;;;;;5026809;28;20211;-70
2022/11/02 09:26:33;;;;;;;1999.90;999.90;;;;;;;;;;5027600;28;20434;-71
2022/11/02 09:29:17;;;;;;;1999.90;999.90;;;;;;;;;;5031656;28;20645;-69
2022/11/02 09:32:02;;;;;;;1999.90;999.90;;;;;;;;;;5031791;28;20211;-71
2022/11/02 09:34:49;;;;;;;1999.90;999.90;;;;;;;;;;5031805;28;20286;-71
2022/11/02 09:37:34;;;;;;;1999.90;999.90;;;;;;;;;;5029270;28;20351;-70
2022/11/02 09:40:22;;;;;;;1999.90;999.90;;;;;;;;;;5027089;28;20243;-72
2022/11/02 09:43:10;;;;;;;1999.90;999.90;;;;;;;;;;5030277;28;21541;-70
2022/11/02 09:45:56;;;;;;;1999.90;999.90;;;;;;;;;;5028191;28;20438;-69
2022/11/02 09:48:43;;;;;;;1999.90;999.90;;;;;;;;;;5030066;28;20264;-70
2022/11/02 09:51:29;;;;;;;1999.90;999.90;;;;;;;;;;5032470;28;20837;-71
2022/11/02 09:54:16;;;;;;;1999.90;999.90;;;;;;;;;;5031269;28;20206;-70
2022/11/02 09:57:05;;;;;;;1999.90;999.90;;;;;;;;;;5031246;28;20208;-71
2022/11/02 09:59:50;;;;;;;1999.90;999.90;;;;;;;;;;5031259;28;20727;-69
2022/11/02 10:02:42;;;;;;;1999.90;999.90;;;;;;;;;;5029905;28;20318;-69
2022/11/02 10:05:32;;;;;;;1999.90;999.90;;;;;;;;;;5031931;28;20208;-71
2022/11/02 10:08:30;;;;;;;1999.90;999.90;;;;;;;;;;5029670;28;20213;-71
2022/11/02 10:11:20;;;;;;;1999.90;999.90;;;;;;;;;;5030822;28;20208;-71
2022/11/02 10:14:09;;;;;;;1999.90;999.90;;;;;;;;;;5028794;28;20223;-70
2022/11/02 10:16:57;;;;;;;1999.90;999.90;;;;;;;;;;5030748;28;20216;-70
2022/11/02 10:19:45;;;;;;;1999.90;999.90;;;;;;;;;;5031159;28;20241;-69
2022/11/02 10:22:32;;;;;;;1999.90;999.90;;;;;;;;;;5030403;28;20217;-71
2022/11/02 10:25:17;;;;;;;1999.90;999.90;;;;;;;;;;5031029;28;20244;-70
2022/11/02 10:28:09;;;;;;;1999.90;999.90;;;;;;;;;;5029512;28;20702;-71
2022/11/02 10:30:55;;;;;;;1999.90;999.90;;;;;;;;;;5030360;28;20221;-72
2022/11/02 10:33:40;;;;;;;1999.90;999.90;;;;;;;;;;5030115;28;20209;-72
2022/11/02 10:36:31;;;;;;;1999.90;999.90;;;;;;;;;;5030206;28;20266;-71
2022/11/02 10:39:23;;;;;;;1999.90;999.90;;;;;;;;;;5031055;28;20232;-73
2022/11/02 10:42:13;;;;;;;1999.90;999.90;;;;;;;;;;5027272;28;20438;-70
2022/11/02 10:45:22;;;;;;;1999.90;999.90;;;;;;;;;;5025771;28;20217;-70
2022/11/02 10:48:13;;;;;;;1999.90;999.90;;;;;;;;;;5017920;28;20723;-72
2022/11/02 10:51:03;;;;;;;1999.90;999.90;;;;;;;;;;5029441;28;20594;-70
2022/11/02 10:53:49;;;;;;;1999.90;999.90;;;;;;;;;;5027901;28;20199;-70
2022/11/02 10:56:33;;;;;;;1999.90;999.90;;;;;;;;;;5027265;28;20209;-71
2022/11/02 10:59:19;;;;;;;1999.90;999.90;;;;;;;;;;5030713;28;20318;-72
2022/11/02 11:02:05;;;;;;;1999.90;999.90;;;;;;;;;;5027700;28;20506;-71
2022/11/02 11:04:56;;;;;;;1999.90;999.90;;;;;;;;;;5030167;28;20208;-70
2022/11/02 11:07:43;;;;;;;1999.90;999.90;;;;;;;;;;5029839;28;20209;-69
2022/11/02 11:10:31;;;;;;;1999.90;999.90;;;;;;;;;;5028394;28;20253;-71
2022/11/02 11:13:21;;;;;;;1999.90;999.90;;;;;;;;;;5024993;28;20341;-71
2022/11/02 11:16:07;;;;;;;1999.90;999.90;;;;;;;;;;5028495;28;20239;-71
2022/11/02 11:18:51;;;;;;;1999.90;999.90;;;;;;;;;;5029458;28;20221;-73
2022/11/02 11:21:39;;;;;;;1999.90;999.90;;;;;;;;;;5026631;28;20265;-71
2022/11/02 11:24:25;;;;;;;1999.90;999.90;;;;;;;;;;5028534;28;20255;-72
2022/11/02 11:27:18;;;;;;;1999.90;999.90;;;;;;;;;;5026295;28;20210;-72
2022/11/02 11:30:22;;;;;;;1999.90;999.90;;;;;;;;;;5028759;28;20228;-72
2022/11/02 11:33:07;;;;;;;1999.90;999.90;;;;;;;;;;5028438;28;20205;-72
2022/11/02 11:35:52;;;;;;;1999.90;999.90;;;;;;;;;;5015054;28;20296;-71
2022/11/02 11:38:46;;;;;;;1999.90;999.90;;;;;;;;;;5027814;28;20216;-72
2022/11/02 11:41:32;;;;;;;1999.90;999.90;;;;;;;;;;5023175;28;20206;-72
2022/11/02 11:44:17;;;;;;;1999.90;999.90;;;;;;;;;;5032039;28;20221;-73
2022/11/02 11:47:03;;;;;;;1999.90;999.90;;;;;;;;;;5032504;28;20208;-72
2022/11/02 11:49:48;;;;;;;1999.90;999.90;;;;;;;;;;5031774;28;20240;-72
2022/11/02 11:52:34;;;;;;;1999.90;999.90;;;;;;;;;;5030147;28;20214;-73
2022/11/02 11:55:22;;;;;;;1999.90;999.90;;;;;;;;;;5027933;28;20272;-71
2022/11/02 11:58:13;;;;;;;1999.90;999.90;;;;;;;;;;5029000;28;20218;-73
2022/11/02 12:01:02;;;;;;;1999.90;999.90;;;;;;;;;;5023251;28;20233;-71
2022/11/02 12:03:51;;;;;;;1999.90;999.90;;;;;;;;;;5029026;28;21468;-72
2022/11/02 12:06:40;;;;;;;1999.90;999.90;;;;;;;;;;5029540;28;20209;-70
2022/11/02 12:09:29;;;;;;;1999.90;999.90;;;;;;;;;;5028858;28;20235;-72
2022/11/02 12:12:19;;;;;;;1999.90;999.90;;;;;;;;;;5029792;28;20575;-71
2022/11/02 12:15:10;;;;;;;1999.90;999.90;;;;;;;;;;5027977;28;20206;-72
2022/11/02 12:18:04;;;;;;;1999.90;999.90;;;;;;;;;;5023634;28;20429;-72
2022/11/02 12:20:56;;;;;;;1999.90;999.90;;;;;;;;;;5028559;28;20229;-71
2022/11/02 12:23:48;;;;;;;1999.90;999.90;;;;;;;;;;5028129;28;20225;-72
2022/11/02 12:26:47;;;;;;;1999.90;999.90;;;;;;;;;;5026808;28;20206;-72
2022/11/02 12:29:46;;;;;;;1999.90;999.90;;;;;;;;;;5027164;28;20360;-72
2022/11/02 12:32:45;;;;;;;1999.90;999.90;;;;;;;;;;5027898;28;20753;-72
2022/11/02 12:35:36;;;;;;;1999.90;999.90;;;;;;;;;;5027141;28;20205;-72
2022/11/02 12:38:28;;;;;;;1999.90;999.90;;;;;;;;;;5026048;28;20212;-72
2022/11/02 12:41:17;;;;;;;1999.90;999.90;;;;;;;;;;5024060;28;20226;-73
2022/11/02 12:44:06;;;;;;;1999.90;999.90;;;;;;;;;;5027470;28;20210;-72
2022/11/02 12:46:55;;;;;;;1999.90;999.90;;;;;;;;;;5027988;28;20202;-71
2022/11/02 12:49:44;;;;;;;1999.90;999.90;;;;;;;;;;5027904;28;20318;-71
2022/11/02 12:52:33;;;;;;;1999.90;999.90;;;;;;;;;;5029144;28;20257;-72
2022/11/02 12:55:20;;;;;;;1999.90;999.90;;;;;;;;;;5028049;28;20268;-70
2022/11/02 12:58:06;;;;;;;1999.90;999.90;;;;;;;;;;5029605;28;20213;-70
2022/11/02 13:00:54;;;;;;;1999.90;999.90;;;;;;;;;;5028263;28;20299;-71
2022/11/02 13:03:46;;;;;;;1999.90;999.90;;;;;;;;;;5031005;28;20257;-71
2022/11/02 13:06:34;;;;;;;1999.90;999.90;;;;;;;;;;5029102;28;20692;-70
2022/11/02 13:09:23;;;;;;;1999.90;999.90;;;;;;;;;;5033315;28;20743;-70
2022/11/02 13:12:11;;;;;;;1999.90;999.90;;;;;;;;;;5031932;28;20621;-71
2022/11/02 13:14:57;;;;;;;1999.90;999.90;;;;;;;;;;5033061;28;20216;-71
2022/11/02 13:17:44;;;;;;;1999.90;999.90;;;;;;;;;;5032211;28;20213;-70
2022/11/02 13:20:33;;;;;;;1999.90;999.90;;;;;;;;;;5031986;28;20229;-69
2022/11/02 13:23:30;;;;;;;1999.90;999.90;;;;;;;;;;5033109;28;20579;-70
2022/11/02 13:26:23;;;;;;;1999.90;999.90;;;;;;;;;;5031254;28;20735;-71
2022/11/02 13:29:14;;;;;;;1999.90;999.90;;;;;;;;;;5032787;28;20225;-72
2022/11/02 13:32:03;;;;;;;1999.90;999.90;;;;;;;;;;5029843;28;20489;-71
2022/11/02 13:34:49;;;;;;;1999.90;999.90;;;;;;;;;;5030894;28;20213;-70
2022/11/02 13:37:39;;;;;;;1999.90;999.90;;;;;;;;;;5031303;28;20208;-71
2022/11/02 13:40:24;;;;;;;1999.90;999.90;;;;;;;;;;5032097;28;20272;-71
2022/11/02 13:43:36;;;;;;;1999.90;999.90;;;;;;;;;;5029549;28;20228;-71
2022/11/02 13:46:31;;;;;;;1999.90;999.90;;;;;;;;;;5032320;28;20512;-71
2022/11/02 13:49:19;;;;;;;1999.90;999.90;;;;;;;;;;5032008;28;20831;-71
2022/11/02 13:52:05;;;;;;;1999.90;999.90;;;;;;;;;;5031749;28;20209;-71
2022/11/02 13:54:52;;;;;;;1999.90;999.90;;;;;;;;;;5031835;28;20205;-72
2022/11/02 13:57:39;;;;;;;1999.90;999.90;;;;;;;;;;5032243;28;20332;-72
2022/11/02 14:00:28;;;;;;;1999.90;999.90;;;;;;;;;;5030289;28;20722;-71
2022/11/02 14:03:15;;;;;;;1999.90;999.90;;;;;;;;;;5031977;28;21039;-72
2022/11/02 14:06:01;;;;;;;1999.90;999.90;;;;;;;;;;5031576;28;20259;-71
2022/11/02 14:08:51;;;;;;;1999.90;999.90;;;;;;;;;;5031785;28;20229;-71
2022/11/02 14:11:46;;;;;;;1999.90;999.90;;;;;;;;;;5029902;28;20205;-70
2022/11/02 14:14:31;;;;;;;1999.90;999.90;;;;;;;;;;5029937;28;20249;-72
2022/11/02 14:17:17;;;;;;;1999.90;999.90;;;;;;;;;;5030843;28;20232;-71
2022/11/02 14:20:04;;;;;;;1999.90;999.90;;;;;;;;;;5031619;28;20276;-72
2022/11/02 14:23:04;;;;;;;1999.90;999.90;;;;;;;;;;5031502;28;20202;-71
2022/11/02 14:25:50;;;;;;;1999.90;999.90;;;;;;;;;;5030918;28;20425;-71
2022/11/02 14:28:42;;;;;;;1999.90;999.90;;;;;;;;;;5031560;28;20205;-71
2022/11/02 14:31:38;;;;;;;1999.90;999.90;;;;;;;;;;5031141;28;20205;-71
2022/11/02 14:34:40;;;;;;;1999.90;999.90;;;;;;;;;;5031946;28;20209;-71
2022/11/02 14:37:33;;;;;;;1999.90;999.90;;;;;;;;;;5033767;28;20210;-72
2022/11/02 14:40:23;;;;;;;1999.90;999.90;;;;;;;;;;5031520;28;20229;-72
2022/11/02 14:43:23;;;;;;;1999.90;999.90;;;;;;;;;;5030227;28;20300;-70
2022/11/02 14:46:15;;;;;;;1999.90;999.90;;;;;;;;;;5030292;28;20536;-72
2022/11/02 14:49:01;;;;;;;1999.90;999.90;;;;;;;;;;5033115;28;20206;-72
2022/11/02 14:51:55;;;;;;;1999.90;999.90;;;;;;;;;;5033105;28;20596;-72
2022/11/02 14:54:46;;;;;;;1999.90;999.90;;;;;;;;;;5033029;28;20221;-72
2022/11/02 14:57:34;;;;;;;1999.90;999.90;;;;;;;;;;5031393;28;20208;-72
2022/11/02 15:00:20;;;;;;;1999.90;999.90;;;;;;;;;;5013400;28;20759;-71
2022/11/02 15:03:10;;;;;;;1999.90;999.90;;;;;;;;;;5027584;28;20233;-73
2022/11/02 15:05:59;;;;;;;1999.90;999.90;;;;;;;;;;5032917;28;20221;-70
2022/11/02 15:08:52;;;;;;;1999.90;999.90;;;;;;;;;;5033237;28;20241;-72
2022/11/02 15:11:48;;;;;;;1999.90;999.90;;;;;;;;;;5033186;28;20291;-72
2022/11/02 15:14:53;;;;;;;1999.90;999.90;;;;;;;;;;5024136;28;20277;-72
2022/11/02 15:17:58;;;;;;;1999.90;999.90;;;;;;;;;;5021839;28;20616;-72
2022/11/02 15:20:44;;;;;;;1999.90;999.90;;;;;;;;;;5032588;28;20364;-71
2022/11/02 15:23:29;;;;;;;1999.90;999.90;;;;;;;;;;5031935;28;20699;-72
2022/11/02 15:26:16;;;;;;;1999.90;999.90;;;;;;;;;;5032507;28;20209;-72
2022/11/02 15:29:02;;;;;;;1999.90;999.90;;;;;;;;;;5032722;28;20687;-73
2022/11/02 15:31:52;;;;;;;1999.90;999.90;;;;;;;;;;5032662;28;20205;-73
2022/11/02 15:34:40;;;;;;;1999.90;999.90;;;;;;;;;;5032330;28;20200;-72
2022/11/02 15:37:29;;;;;;;1999.90;999.90;;;;;;;;;;5032793;28;20227;-72
2022/11/02 15:40:22;;;;;;;1999.90;999.90;;;;;;;;;;5032401;28;20306;-72
2022/11/02 15:43:11;;;;;;;1999.90;999.90;;;;;;;;;;5032602;28;20291;-70
2022/11/02 15:46:00;;;;;;;1999.90;999.90;;;;;;;;;;5032259;28;20205;-71
2022/11/02 15:48:48;;;;;;;1999.90;999.90;;;;;;;;;;5032355;28;20212;-71
2022/11/02 15:51:36;;;;;;;1999.90;999.90;;;;;;;;;;5032283;28;20228;-70